Strona główna
METAR-TAF:

METAR-TAF

Lotnisko :

Milton, Massachusetts, Stany Zjednoczone

Szerokość geograficzna: 42-12-44N, Długość geograficzna: 071-06-53W, wysokość: 192 m

Aktualna obserwacja pogody

Raport powstał 1 godzina i 2 minut temu, godzina 02:51 UTC
Wiatr 19 kt od zachodnio-północny zachód w porywach dochodzący do 32 kt
Temperatura -9°C
Wilgotność 57%
Ciśnienie 1013 hPa

METAR: KMQE 240251Z AUTO 30019G32KT M09/M16 A2990 RMK AO1 PK WND 31033/0153 SLP147 T10891156 51008

czas: 22:53 (03:53 UTC)


TAF: brakujący

Obserwacja i prognoza pogody dla ponad 4000 lotnisk (raport METAR i TAF).

Dostępne stacje oznaczono żółtymi i czerwonymi punktami na mapie.

Najedź kursorem aby zobaczyć nazwę stacji.

Kliknij aby zobaczyć obserwacje i prognozy pogody.

Aby zmienić mapę: kliknij na zielony przycisk z czarnym krzyżykiem, aby powiększyć; na zielony przycisk z myślnikiem, aby pomniejszyć; na zielone strzałki, aby przejść do map sąsiednich.


METAR-TAF: